Las Cruces International Airport
KLRU : now visible

Airfield :











YOU CAN JOIN US ON...

 
LOGIN :

Register | Disclaimer

   EN    FR    IT 

 









Legend :    VFR   Marginal VFR   IFR   Intensive IFR   Very Intensive IFR
Visi :
Ceiling :
>= 8 km
>= 3000ft
5 to 8 km
1000 to 3000 ft
1500m to 5 km
500 to 1000 ft
800 to 1500m
200 to 500 ft
< 800m
< 200 ft
Symbols :   Thunderstorms  Fog  Heavy snow  Heavy precipitations  Wind > 20 kt






- Airport Elevation : 4456 ft
- IATA code : LRU


KLRU - Las Cruces International

CURRENT METAR :
  • 251915Z AUTO 24006KT 10SM CLR 28/M04 A3002 RMK AO2 T02801045

EXPIRED METARs :
  • 251855Z AUTO 31005KT 10SM CLR 27/M05 A3003 RMK AO2 T02731046
  • 251835Z AUTO 23005KT 10SM CLR 26/M03 A3004 RMK AO2 T02581034
  • 251815Z AUTO 00000KT 10SM CLR 25/M03 A3005 RMK AO2 T02471032
  • 251755Z AUTO 00000KT 10SM CLR 25/M03 A3006 RMK AO2 T02471030 10247 20120
  • 251735Z AUTO 16003KT 10SM CLR 24/M01 A3007 RMK AO2 T02351014
  • 251715Z AUTO 14003KT 10SM CLR 23/M01 A3007 RMK AO2 T02251006
  • 251655Z AUTO 00000KT 10SM CLR 21/00 A3007 RMK AO2 T02131001
  • 251635Z AUTO 20003KT 10SM CLR 21/00 A3007 RMK AO2 T02111002

TAF KLRU
Valid from the 25 at 18:00 until the 26 at 18:00 UTC


251732Z 2518/2618 29010KT P6SM FEW250
FM260200 31007KT P6SM SKC
KZAB FIR / North America



MET'MAP, your aeronautical weather chart ! - Copyright ORBIFLY December 2007 - Disclaimer

ORBIFLY MET'MAP TEAM :

Programming & Development : Alexandra Zaïnal
Original concept : Baudouin d'Aumeries
Technical & hardware support : Manuel Goepfert
Assistance : Marc-Olivier Méhu

Contact : metmap@orbifly.com




SOURCES & CREDITS :

   NOAA       Earth
Advisory